sensor_id;sensor_type;location;lat;lon;timestamp;temperature;humidity
14739;DHT22;7461;52.440;13.540;2022-11-15T00:01:39;5.90;99.90
14739;DHT22;7461;52.440;13.540;2022-11-15T00:04:07;6.00;99.90
14739;DHT22;7461;52.440;13.540;2022-11-15T00:06:34;6.00;99.90
14739;DHT22;7461;52.440;13.540;2022-11-15T00:09:02;6.00;99.90
14739;DHT22;7461;52.440;13.540;2022-11-15T00:11:29;6.00;99.90
14739;DHT22;7461;52.440;13.540;2022-11-15T00:13:57;5.90;99.90
14739;DHT22;7461;52.440;13.540;2022-11-15T00:16:24;5.90;99.90
14739;DHT22;7461;52.440;13.540;2022-11-15T00:18:51;5.90;99.90
14739;DHT22;7461;52.440;13.540;2022-11-15T00:21:19;5.90;99.90
14739;DHT22;7461;52.440;13.540;2022-11-15T00:23:46;5.90;99.90
14739;DHT22;7461;52.440;13.540;2022-11-15T00:26:14;5.90;99.90
14739;DHT22;7461;52.440;13.540;2022-11-15T00:28:42;5.90;99.90
14739;DHT22;7461;52.440;13.540;2022-11-15T00:31:12;5.90;99.90
14739;DHT22;7461;52.440;13.540;2022-11-15T00:33:39;5.90;99.90
14739;DHT22;7461;52.440;13.540;2022-11-15T00:36:10;5.90;99.90
14739;DHT22;7461;52.440;13.540;2022-11-15T00:38:39;5.90;99.90
14739;DHT22;7461;52.440;13.540;2022-11-15T00:41:07;5.90;99.90
14739;DHT22;7461;52.440;13.540;2022-11-15T00:43:34;5.80;99.90
14739;DHT22;7461;52.440;13.540;2022-11-15T00:46:01;5.80;99.90
14739;DHT22;7461;52.440;13.540;2022-11-15T00:48:29;5.80;99.90
14739;DHT22;7461;52.440;13.540;2022-11-15T00:50:57;5.70;99.90
14739;DHT22;7461;52.440;13.540;2022-11-15T00:53:24;5.70;99.90
14739;DHT22;7461;52.440;13.540;2022-11-15T00:55:52;5.70;99.90
14739;DHT22;7461;52.440;13.540;2022-11-15T00:58:20;5.70;99.90
14739;DHT22;7461;52.440;13.540;2022-11-15T01:00:46;5.80;99.90
14739;DHT22;7461;52.440;13.540;2022-11-15T01:03:13;5.90;99.90
14739;DHT22;7461;52.440;13.540;2022-11-15T01:05:40;5.90;99.90
14739;DHT22;7461;52.440;13.540;2022-11-15T01:08:12;5.90;99.90
14739;DHT22;7461;52.440;13.540;2022-11-15T01:10:39;5.90;99.90
14739;DHT22;7461;52.440;13.540;2022-11-15T01:13:08;5.90;99.90
14739;DHT22;7461;52.440;13.540;2022-11-15T01:15:39;6.00;99.90
14739;DHT22;7461;52.440;13.540;2022-11-15T01:18:06;6.00;99.90
14739;DHT22;7461;52.440;13.540;2022-11-15T01:20:39;6.00;99.90
14739;DHT22;7461;52.440;13.540;2022-11-15T01:23:06;6.00;99.90
14739;DHT22;7461;52.440;13.540;2022-11-15T01:25:33;6.00;99.90
14739;DHT22;7461;52.440;13.540;2022-11-15T01:28:00;6.00;99.90
14739;DHT22;7461;52.440;13.540;2022-11-15T01:30:28;6.00;99.90
14739;DHT22;7461;52.440;13.540;2022-11-15T01:32:55;6.00;99.90
14739;DHT22;7461;52.440;13.540;2022-11-15T01:35:22;5.90;99.90
14739;DHT22;7461;52.440;13.540;2022-11-15T01:37:49;5.90;99.90
14739;DHT22;7461;52.440;13.540;2022-11-15T01:40:16;5.90;99.90
14739;DHT22;7461;52.440;13.540;2022-11-15T01:42:43;5.80;99.90
14739;DHT22;7461;52.440;13.540;2022-11-15T01:45:14;5.90;99.90
14739;DHT22;7461;52.440;13.540;2022-11-15T01:47:44;5.80;99.90
14739;DHT22;7461;52.440;13.540;2022-11-15T01:50:14;5.80;99.90
14739;DHT22;7461;52.440;13.540;2022-11-15T01:52:42;5.80;99.90
14739;DHT22;7461;52.440;13.540;2022-11-15T01:55:13;5.80;99.90
14739;DHT22;7461;52.440;13.540;2022-11-15T01:57:42;5.80;99.90
14739;DHT22;7461;52.440;13.540;2022-11-15T02:00:12;5.80;99.90
14739;DHT22;7461;52.440;13.540;2022-11-15T02:02:39;5.80;99.90
14739;DHT22;7461;52.440;13.540;2022-11-15T02:05:08;5.80;99.90
14739;DHT22;7461;52.440;13.540;2022-11-15T02:07:36;5.70;99.90
14739;DHT22;7461;52.440;13.540;2022-11-15T02:10:07;5.70;99.90
14739;DHT22;7461;52.440;13.540;2022-11-15T02:12:34;5.70;99.90
14739;DHT22;7461;52.440;13.540;2022-11-15T02:15:03;5.60;99.90
14739;DHT22;7461;52.440;13.540;2022-11-15T02:17:46;5.60;99.90
14739;DHT22;7461;52.440;13.540;2022-11-15T02:20:43;5.60;99.90
14739;DHT22;7461;52.440;13.540;2022-11-15T02:29:41;5.50;99.90
14739;DHT22;7461;52.440;13.540;2022-11-15T02:32:19;5.40;99.90
14739;DHT22;7461;52.440;13.540;2022-11-15T02:34:51;5.40;99.90
14739;DHT22;7461;52.440;13.540;2022-11-15T02:37:25;5.40;99.90
14739;DHT22;7461;52.440;13.540;2022-11-15T02:39:59;5.40;99.90
14739;DHT22;7461;52.440;13.540;2022-11-15T02:42:32;5.40;99.90
14739;DHT22;7461;52.440;13.540;2022-11-15T02:51:56;5.40;99.90
14739;DHT22;7461;52.440;13.540;2022-11-15T02:54:25;5.40;99.90
14739;DHT22;7461;52.440;13.540;2022-11-15T02:56:54;5.40;99.90
14739;DHT22;7461;52.440;13.540;2022-11-15T03:02:29;5.30;99.90
14739;DHT22;7461;52.440;13.540;2022-11-15T03:05:01;5.30;99.90
14739;DHT22;7461;52.440;13.540;2022-11-15T03:07:35;5.30;99.90
14739;DHT22;7461;52.440;13.540;2022-11-15T03:10:10;5.30;99.90
14739;DHT22;7461;52.440;13.540;2022-11-15T03:12:48;5.30;99.90
14739;DHT22;7461;52.440;13.540;2022-11-15T03:15:21;5.30;99.90
14739;DHT22;7461;52.440;13.540;2022-11-15T03:17:55;5.30;99.90
14739;DHT22;7461;52.440;13.540;2022-11-15T03:20:25;5.30;99.90
14739;DHT22;7461;52.440;13.540;2022-11-15T03:22:56;5.30;99.90
14739;DHT22;7461;52.440;13.540;2022-11-15T03:25:26;5.30;99.90
14739;DHT22;7461;52.440;13.540;2022-11-15T03:27:57;5.20;99.90
14739;DHT22;7461;52.440;13.540;2022-11-15T03:30:26;5.30;99.90
14739;DHT22;7461;52.440;13.540;2022-11-15T03:32:55;5.30;99.90
14739;DHT22;7461;52.440;13.540;2022-11-15T03:35:24;5.30;99.90
14739;DHT22;7461;52.440;13.540;2022-11-15T03:37:59;5.20;99.90
14739;DHT22;7461;52.440;13.540;2022-11-15T03:40:33;5.30;99.90
14739;DHT22;7461;52.440;13.540;2022-11-15T03:43:06;5.30;99.90
14739;DHT22;7461;52.440;13.540;2022-11-15T03:45:39;5.40;99.90
14739;DHT22;7461;52.440;13.540;2022-11-15T03:48:12;5.40;99.90
14739;DHT22;7461;52.440;13.540;2022-11-15T03:50:41;5.40;99.90
14739;DHT22;7461;52.440;13.540;2022-11-15T03:53:10;5.40;99.90
14739;DHT22;7461;52.440;13.540;2022-11-15T03:55:37;5.40;99.90
14739;DHT22;7461;52.440;13.540;2022-11-15T03:58:04;5.30;99.90
14739;DHT22;7461;52.440;13.540;2022-11-15T04:00:32;5.30;99.90
14739;DHT22;7461;52.440;13.540;2022-11-15T04:02:59;5.40;99.90
14739;DHT22;7461;52.440;13.540;2022-11-15T04:05:26;5.30;99.90
14739;DHT22;7461;52.440;13.540;2022-11-15T04:07:53;5.30;99.90
14739;DHT22;7461;52.440;13.540;2022-11-15T04:10:21;5.30;99.90
14739;DHT22;7461;52.440;13.540;2022-11-15T04:15:24;5.20;99.90
14739;DHT22;7461;52.440;13.540;2022-11-15T04:17:53;5.20;99.90
14739;DHT22;7461;52.440;13.540;2022-11-15T04:20:22;5.20;99.90
14739;DHT22;7461;52.440;13.540;2022-11-15T04:23:09;5.20;99.90
14739;DHT22;7461;52.440;13.540;2022-11-15T04:25:58;5.10;99.90
14739;DHT22;7461;52.440;13.540;2022-11-15T04:28:26;5.10;99.90
14739;DHT22;7461;52.440;13.540;2022-11-15T04:30:53;5.10;99.90
14739;DHT22;7461;52.440;13.540;2022-11-15T04:33:20;5.10;99.90
14739;DHT22;7461;52.440;13.540;2022-11-15T04:35:48;5.10;99.90
14739;DHT22;7461;52.440;13.540;2022-11-15T04:38:29;5.10;99.90
14739;DHT22;7461;52.440;13.540;2022-11-15T04:40:57;5.10;99.90
14739;DHT22;7461;52.440;13.540;2022-11-15T04:43:25;5.10;99.90
14739;DHT22;7461;52.440;13.540;2022-11-15T04:45:52;5.20;99.90
14739;DHT22;7461;52.440;13.540;2022-11-15T04:48:19;5.10;99.90
14739;DHT22;7461;52.440;13.540;2022-11-15T04:50:47;5.10;99.90
14739;DHT22;7461;52.440;13.540;2022-11-15T04:55:50;5.00;99.90
14739;DHT22;7461;52.440;13.540;2022-11-15T04:58:18;5.00;99.90
14739;DHT22;7461;52.440;13.540;2022-11-15T05:00:45;5.00;99.90
14739;DHT22;7461;52.440;13.540;2022-11-15T05:03:12;5.00;99.90
14739;DHT22;7461;52.440;13.540;2022-11-15T05:05:57;5.00;99.90
14739;DHT22;7461;52.440;13.540;2022-11-15T05:08:25;5.10;99.90
14739;DHT22;7461;52.440;13.540;2022-11-15T05:10:51;5.10;99.90
14739;DHT22;7461;52.440;13.540;2022-11-15T05:13:20;5.10;99.90
14739;DHT22;7461;52.440;13.540;2022-11-15T05:15:47;5.20;99.90
14739;DHT22;7461;52.440;13.540;2022-11-15T05:18:14;5.20;99.90
14739;DHT22;7461;52.440;13.540;2022-11-15T05:20:41;5.20;99.90
14739;DHT22;7461;52.440;13.540;2022-11-15T05:23:08;5.20;99.90
14739;DHT22;7461;52.440;13.540;2022-11-15T05:25:36;5.20;99.90
14739;DHT22;7461;52.440;13.540;2022-11-15T05:28:03;5.20;99.90
14739;DHT22;7461;52.440;13.540;2022-11-15T05:30:32;5.20;99.90
14739;DHT22;7461;52.440;13.540;2022-11-15T05:32:59;5.20;99.90
14739;DHT22;7461;52.440;13.540;2022-11-15T05:35:30;5.10;99.90
14739;DHT22;7461;52.440;13.540;2022-11-15T05:37:59;5.10;99.90
14739;DHT22;7461;52.440;13.540;2022-11-15T05:40:26;5.10;99.90
14739;DHT22;7461;52.440;13.540;2022-11-15T05:42:55;5.20;99.90
14739;DHT22;7461;52.440;13.540;2022-11-15T05:45:22;5.20;99.90
14739;DHT22;7461;52.440;13.540;2022-11-15T05:50:18;5.20;99.90
14739;DHT22;7461;52.440;13.540;2022-11-15T05:52:46;5.20;99.90
14739;DHT22;7461;52.440;13.540;2022-11-15T05:55:14;5.30;99.90
14739;DHT22;7461;52.440;13.540;2022-11-15T05:57:41;5.20;99.90
14739;DHT22;7461;52.440;13.540;2022-11-15T06:00:09;5.30;99.90
14739;DHT22;7461;52.440;13.540;2022-11-15T06:02:36;5.30;99.90
14739;DHT22;7461;52.440;13.540;2022-11-15T06:05:05;5.20;99.90
14739;DHT22;7461;52.440;13.540;2022-11-15T06:07:32;5.30;99.90
14739;DHT22;7461;52.440;13.540;2022-11-15T06:09:59;5.30;99.90
14739;DHT22;7461;52.440;13.540;2022-11-15T06:12:26;5.30;99.90
14739;DHT22;7461;52.440;13.540;2022-11-15T06:14:53;5.30;99.90
14739;DHT22;7461;52.440;13.540;2022-11-15T06:17:20;5.20;99.90
14739;DHT22;7461;52.440;13.540;2022-11-15T06:19:47;5.20;99.90
14739;DHT22;7461;52.440;13.540;2022-11-15T06:22:15;5.10;99.90
14739;DHT22;7461;52.440;13.540;2022-11-15T06:28:04;5.10;99.90
14739;DHT22;7461;52.440;13.540;2022-11-15T06:30:31;5.10;99.90
14739;DHT22;7461;52.440;13.540;2022-11-15T06:32:59;5.20;99.90
14739;DHT22;7461;52.440;13.540;2022-11-15T06:35:27;5.20;99.90
14739;DHT22;7461;52.440;13.540;2022-11-15T06:37:56;5.20;99.90
14739;DHT22;7461;52.440;13.540;2022-11-15T06:40:28;5.30;99.90
14739;DHT22;7461;52.440;13.540;2022-11-15T06:42:57;5.30;99.90
14739;DHT22;7461;52.440;13.540;2022-11-15T06:45:24;5.30;99.90
14739;DHT22;7461;52.440;13.540;2022-11-15T06:47:51;5.40;99.90
14739;DHT22;7461;52.440;13.540;2022-11-15T06:50:19;5.40;99.90
14739;DHT22;7461;52.440;13.540;2022-11-15T06:52:46;5.40;99.90
14739;DHT22;7461;52.440;13.540;2022-11-15T06:55:14;5.40;99.90
14739;DHT22;7461;52.440;13.540;2022-11-15T06:57:47;5.40;99.90
14739;DHT22;7461;52.440;13.540;2022-11-15T07:00:16;5.50;99.90
14739;DHT22;7461;52.440;13.540;2022-11-15T07:02:43;5.50;99.90
14739;DHT22;7461;52.440;13.540;2022-11-15T07:05:11;5.60;99.90
14739;DHT22;7461;52.440;13.540;2022-11-15T07:07:38;5.60;99.90
14739;DHT22;7461;52.440;13.540;2022-11-15T07:10:07;5.70;99.90
14739;DHT22;7461;52.440;13.540;2022-11-15T07:12:36;5.70;99.90
14739;DHT22;7461;52.440;13.540;2022-11-15T07:15:04;5.70;99.90
14739;DHT22;7461;52.440;13.540;2022-11-15T07:17:32;5.70;99.90
14739;DHT22;7461;52.440;13.540;2022-11-15T07:19:59;5.80;99.90
14739;DHT22;7461;52.440;13.540;2022-11-15T07:22:26;5.80;99.90
14739;DHT22;7461;52.440;13.540;2022-11-15T07:24:53;5.80;99.90
14739;DHT22;7461;52.440;13.540;2022-11-15T07:27:20;5.80;99.90
14739;DHT22;7461;52.440;13.540;2022-11-15T07:29:48;5.90;99.90
14739;DHT22;7461;52.440;13.540;2022-11-15T07:32:16;5.90;99.90
14739;DHT22;7461;52.440;13.540;2022-11-15T07:34:43;5.90;99.90
14739;DHT22;7461;52.440;13.540;2022-11-15T07:37:13;5.90;99.90
14739;DHT22;7461;52.440;13.540;2022-11-15T07:39:40;6.00;99.90
14739;DHT22;7461;52.440;13.540;2022-11-15T07:42:07;6.00;99.90
14739;DHT22;7461;52.440;13.540;2022-11-15T07:44:53;6.10;99.90
14739;DHT22;7461;52.440;13.540;2022-11-15T07:47:21;6.10;99.90
14739;DHT22;7461;52.440;13.540;2022-11-15T07:49:48;6.20;99.90
14739;DHT22;7461;52.440;13.540;2022-11-15T07:52:15;6.20;99.90
14739;DHT22;7461;52.440;13.540;2022-11-15T07:54:42;6.20;99.90
14739;DHT22;7461;52.440;13.540;2022-11-15T07:57:08;6.20;99.90
14739;DHT22;7461;52.440;13.540;2022-11-15T07:59:35;6.20;99.90
14739;DHT22;7461;52.440;13.540;2022-11-15T08:02:04;6.20;99.90
14739;DHT22;7461;52.440;13.540;2022-11-15T08:04:31;6.30;99.90
14739;DHT22;7461;52.440;13.540;2022-11-15T08:06:58;6.30;99.90
14739;DHT22;7461;52.440;13.540;2022-11-15T08:09:25;6.40;99.90
14739;DHT22;7461;52.440;13.540;2022-11-15T08:11:52;6.50;99.90
14739;DHT22;7461;52.440;13.540;2022-11-15T08:14:19;6.60;99.90
14739;DHT22;7461;52.440;13.540;2022-11-15T08:16:47;6.60;99.90
14739;DHT22;7461;52.440;13.540;2022-11-15T08:19:16;6.70;99.90
14739;DHT22;7461;52.440;13.540;2022-11-15T08:21:43;6.80;99.90
14739;DHT22;7461;52.440;13.540;2022-11-15T08:24:10;6.80;99.90
14739;DHT22;7461;52.440;13.540;2022-11-15T08:26:37;6.90;99.90
14739;DHT22;7461;52.440;13.540;2022-11-15T08:29:05;6.90;99.90
14739;DHT22;7461;52.440;13.540;2022-11-15T08:31:33;7.00;99.90
14739;DHT22;7461;52.440;13.540;2022-11-15T08:34:08;7.00;99.90
14739;DHT22;7461;52.440;13.540;2022-11-15T08:36:51;7.10;99.90
14739;DHT22;7461;52.440;13.540;2022-11-15T08:39:18;7.20;99.90
14739;DHT22;7461;52.440;13.540;2022-11-15T08:41:45;7.20;99.90
14739;DHT22;7461;52.440;13.540;2022-11-15T08:44:12;7.20;99.90
14739;DHT22;7461;52.440;13.540;2022-11-15T08:46:39;7.30;99.90
14739;DHT22;7461;52.440;13.540;2022-11-15T08:49:06;7.30;99.90
14739;DHT22;7461;52.440;13.540;2022-11-15T08:51:33;7.40;99.90
14739;DHT22;7461;52.440;13.540;2022-11-15T08:54:02;7.40;99.90
14739;DHT22;7461;52.440;13.540;2022-11-15T08:56:29;7.50;99.90
14739;DHT22;7461;52.440;13.540;2022-11-15T08:58:56;7.60;99.90
14739;DHT22;7461;52.440;13.540;2022-11-15T09:01:25;7.60;99.90
14739;DHT22;7461;52.440;13.540;2022-11-15T09:03:52;7.60;99.90
14739;DHT22;7461;52.440;13.540;2022-11-15T09:06:20;7.60;99.90
14739;DHT22;7461;52.440;13.540;2022-11-15T09:08:53;7.80;99.90
14739;DHT22;7461;52.440;13.540;2022-11-15T09:11:21;7.90;99.90
14739;DHT22;7461;52.440;13.540;2022-11-15T09:13:48;7.90;99.90
14739;DHT22;7461;52.440;13.540;2022-11-15T09:16:16;8.00;99.90
14739;DHT22;7461;52.440;13.540;2022-11-15T09:18:43;8.00;99.90
14739;DHT22;7461;52.440;13.540;2022-11-15T09:21:10;8.10;99.90
14739;DHT22;7461;52.440;13.540;2022-11-15T09:23:37;8.10;99.90
14739;DHT22;7461;52.440;13.540;2022-11-15T09:26:05;8.20;99.90
14739;DHT22;7461;52.440;13.540;2022-11-15T09:28:34;8.20;99.90
14739;DHT22;7461;52.440;13.540;2022-11-15T09:31:03;8.30;99.90
14739;DHT22;7461;52.440;13.540;2022-11-15T09:33:30;8.30;99.90
14739;DHT22;7461;52.440;13.540;2022-11-15T09:36:00;8.40;99.90
14739;DHT22;7461;52.440;13.540;2022-11-15T09:38:27;8.40;99.90
14739;DHT22;7461;52.440;13.540;2022-11-15T09:44:19;8.60;99.90
14739;DHT22;7461;52.440;13.540;2022-11-15T09:46:58;8.70;99.90
14739;DHT22;7461;52.440;13.540;2022-11-15T09:49:28;8.80;99.90
14739;DHT22;7461;52.440;13.540;2022-11-15T09:51:56;8.90;99.90
14739;DHT22;7461;52.440;13.540;2022-11-15T09:54:29;9.00;99.90
14739;DHT22;7461;52.440;13.540;2022-11-15T09:57:03;9.00;99.90
14739;DHT22;7461;52.440;13.540;2022-11-15T09:59:46;9.20;99.90
14739;DHT22;7461;52.440;13.540;2022-11-15T10:02:32;9.30;99.90
14739;DHT22;7461;52.440;13.540;2022-11-15T10:05:01;9.40;99.90
14739;DHT22;7461;52.440;13.540;2022-11-15T10:07:35;9.60;99.90
14739;DHT22;7461;52.440;13.540;2022-11-15T10:10:13;9.90;99.90
14739;DHT22;7461;52.440;13.540;2022-11-15T10:12:45;10.10;99.90
14739;DHT22;7461;52.440;13.540;2022-11-15T10:15:17;10.20;99.90
14739;DHT22;7461;52.440;13.540;2022-11-15T10:18:07;10.40;99.90
14739;DHT22;7461;52.440;13.540;2022-11-15T10:20:41;10.60;99.90
14739;DHT22;7461;52.440;13.540;2022-11-15T10:23:13;10.70;99.90
14739;DHT22;7461;52.440;13.540;2022-11-15T10:25:41;10.90;99.90
14739;DHT22;7461;52.440;13.540;2022-11-15T10:28:13;11.20;99.90
14739;DHT22;7461;52.440;13.540;2022-11-15T10:30:44;11.30;99.90
14739;DHT22;7461;52.440;13.540;2022-11-15T10:33:25;11.40;99.90
14739;DHT22;7461;52.440;13.540;2022-11-15T10:36:15;11.60;99.90
14739;DHT22;7461;52.440;13.540;2022-11-15T10:38:56;11.70;99.90
14739;DHT22;7461;52.440;13.540;2022-11-15T10:41:35;11.80;99.90
14739;DHT22;7461;52.440;13.540;2022-11-15T10:44:17;11.80;99.90
14739;DHT22;7461;52.440;13.540;2022-11-15T10:46:47;12.00;99.90
14739;DHT22;7461;52.440;13.540;2022-11-15T10:49:17;12.10;99.90
14739;DHT22;7461;52.440;13.540;2022-11-15T10:51:47;12.20;99.90
14739;DHT22;7461;52.440;13.540;2022-11-15T10:54:21;12.30;99.90
14739;DHT22;7461;52.440;13.540;2022-11-15T10:56:51;12.40;99.90
14739;DHT22;7461;52.440;13.540;2022-11-15T10:59:24;12.50;99.90
14739;DHT22;7461;52.440;13.540;2022-11-15T11:01:54;12.40;99.90
14739;DHT22;7461;52.440;13.540;2022-11-15T11:04:21;12.30;99.90
14739;DHT22;7461;52.440;13.540;2022-11-15T11:06:50;12.40;99.90
14739;DHT22;7461;52.440;13.540;2022-11-15T11:09:30;12.40;99.90
14739;DHT22;7461;52.440;13.540;2022-11-15T11:11:58;12.50;99.90
14739;DHT22;7461;52.440;13.540;2022-11-15T11:14:26;12.50;99.90
14739;DHT22;7461;52.440;13.540;2022-11-15T11:17:04;12.60;99.90
14739;DHT22;7461;52.440;13.540;2022-11-15T11:19:41;12.70;99.90
14739;DHT22;7461;52.440;13.540;2022-11-15T11:22:20;12.80;99.90
14739;DHT22;7461;52.440;13.540;2022-11-15T11:24:56;12.90;99.90
14739;DHT22;7461;52.440;13.540;2022-11-15T11:27:36;12.90;99.90
14739;DHT22;7461;52.440;13.540;2022-11-15T11:30:11;12.90;99.90
14739;DHT22;7461;52.440;13.540;2022-11-15T11:33:07;13.00;99.90
14739;DHT22;7461;52.440;13.540;2022-11-15T11:35:42;13.00;99.90
14739;DHT22;7461;52.440;13.540;2022-11-15T11:38:39;13.00;99.90
14739;DHT22;7461;52.440;13.540;2022-11-15T11:41:16;13.00;99.90
14739;DHT22;7461;52.440;13.540;2022-11-15T11:43:55;13.10;99.90
14739;DHT22;7461;52.440;13.540;2022-11-15T11:46:41;13.10;99.90
14739;DHT22;7461;52.440;13.540;2022-11-15T11:49:16;13.10;99.90
14739;DHT22;7461;52.440;13.540;2022-11-15T11:51:49;13.20;99.90
14739;DHT22;7461;52.440;13.540;2022-11-15T11:54:22;13.20;99.90
14739;DHT22;7461;52.440;13.540;2022-11-15T11:56:50;13.10;99.90
14739;DHT22;7461;52.440;13.540;2022-11-15T11:59:23;13.10;99.90
14739;DHT22;7461;52.440;13.540;2022-11-15T12:01:52;13.10;99.90
14739;DHT22;7461;52.440;13.540;2022-11-15T12:04:24;13.10;99.90
14739;DHT22;7461;52.440;13.540;2022-11-15T12:06:56;13.20;99.90
14739;DHT22;7461;52.440;13.540;2022-11-15T12:09:29;13.30;99.90
14739;DHT22;7461;52.440;13.540;2022-11-15T12:12:04;13.30;99.90
14739;DHT22;7461;52.440;13.540;2022-11-15T12:14:47;13.30;99.90
14739;DHT22;7461;52.440;13.540;2022-11-15T12:17:17;13.30;99.90
14739;DHT22;7461;52.440;13.540;2022-11-15T12:19:46;13.30;99.90
14739;DHT22;7461;52.440;13.540;2022-11-15T12:22:18;13.30;99.90
14739;DHT22;7461;52.440;13.540;2022-11-15T12:24:51;13.30;99.90
14739;DHT22;7461;52.440;13.540;2022-11-15T12:27:32;13.40;99.90
14739;DHT22;7461;52.440;13.540;2022-11-15T12:30:03;13.40;99.90
14739;DHT22;7461;52.440;13.540;2022-11-15T12:32:32;13.30;99.90
14739;DHT22;7461;52.440;13.540;2022-11-15T12:35:03;13.20;99.90
14739;DHT22;7461;52.440;13.540;2022-11-15T12:37:50;13.20;99.90
14739;DHT22;7461;52.440;13.540;2022-11-15T12:40:23;13.20;99.90
14739;DHT22;7461;52.440;13.540;2022-11-15T12:46:02;13.10;99.90
14739;DHT22;7461;52.440;13.540;2022-11-15T12:48:57;13.10;99.90
14739;DHT22;7461;52.440;13.540;2022-11-15T12:54:53;13.20;99.90
14739;DHT22;7461;52.440;13.540;2022-11-15T12:57:35;13.10;99.90
14739;DHT22;7461;52.440;13.540;2022-11-15T13:03:28;13.10;99.90
14739;DHT22;7461;52.440;13.540;2022-11-15T13:06:08;13.10;99.90
14739;DHT22;7461;52.440;13.540;2022-11-15T13:08:41;13.00;99.90
14739;DHT22;7461;52.440;13.540;2022-11-15T13:11:47;13.00;99.90
14739;DHT22;7461;52.440;13.540;2022-11-15T13:14:41;12.90;99.90
14739;DHT22;7461;52.440;13.540;2022-11-15T13:17:33;12.90;99.90
14739;DHT22;7461;52.440;13.540;2022-11-15T13:20:27;12.90;99.90
14739;DHT22;7461;52.440;13.540;2022-11-15T13:23:01;12.80;99.90
14739;DHT22;7461;52.440;13.540;2022-11-15T13:26:12;12.80;99.90
14739;DHT22;7461;52.440;13.540;2022-11-15T13:28:44;12.80;99.90
14739;DHT22;7461;52.440;13.540;2022-11-15T13:31:26;12.70;99.90
14739;DHT22;7461;52.440;13.540;2022-11-15T13:33:56;12.70;99.90
14739;DHT22;7461;52.440;13.540;2022-11-15T13:36:27;12.70;99.90
14739;DHT22;7461;52.440;13.540;2022-11-15T13:38:57;12.70;99.90
14739;DHT22;7461;52.440;13.540;2022-11-15T13:41:25;12.70;99.90
14739;DHT22;7461;52.440;13.540;2022-11-15T13:43:53;12.60;99.90
14739;DHT22;7461;52.440;13.540;2022-11-15T13:46:22;12.60;99.90
14739;DHT22;7461;52.440;13.540;2022-11-15T13:48:55;12.60;99.90
14739;DHT22;7461;52.440;13.540;2022-11-15T13:51:27;12.60;99.90
14739;DHT22;7461;52.440;13.540;2022-11-15T13:53:58;12.60;99.90
14739;DHT22;7461;52.440;13.540;2022-11-15T13:56:27;12.50;99.90
14739;DHT22;7461;52.440;13.540;2022-11-15T13:58:54;12.50;99.90
14739;DHT22;7461;52.440;13.540;2022-11-15T14:01:22;12.50;99.90
14739;DHT22;7461;52.440;13.540;2022-11-15T14:03:55;12.50;99.90
14739;DHT22;7461;52.440;13.540;2022-11-15T14:06:25;12.50;99.90
14739;DHT22;7461;52.440;13.540;2022-11-15T14:11:58;12.40;99.90
14739;DHT22;7461;52.440;13.540;2022-11-15T14:14:26;12.30;99.90
14739;DHT22;7461;52.440;13.540;2022-11-15T14:16:55;12.40;99.90
14739;DHT22;7461;52.440;13.540;2022-11-15T14:19:39;12.30;99.90
14739;DHT22;7461;52.440;13.540;2022-11-15T14:22:27;12.30;99.90
14739;DHT22;7461;52.440;13.540;2022-11-15T14:25:15;12.20;99.90
14739;DHT22;7461;52.440;13.540;2022-11-15T14:28:07;12.10;99.90
14739;DHT22;7461;52.440;13.540;2022-11-15T14:30:33;12.10;99.90
14739;DHT22;7461;52.440;13.540;2022-11-15T14:33:00;12.00;99.90
14739;DHT22;7461;52.440;13.540;2022-11-15T14:35:28;12.00;99.90
14739;DHT22;7461;52.440;13.540;2022-11-15T14:37:55;11.90;99.90
14739;DHT22;7461;52.440;13.540;2022-11-15T14:40:22;11.80;99.90
14739;DHT22;7461;52.440;13.540;2022-11-15T14:42:49;11.70;99.90
14739;DHT22;7461;52.440;13.540;2022-11-15T14:45:18;11.60;99.90
14739;DHT22;7461;52.440;13.540;2022-11-15T14:47:47;11.60;99.90
14739;DHT22;7461;52.440;13.540;2022-11-15T14:50:16;11.50;99.90
14739;DHT22;7461;52.440;13.540;2022-11-15T14:52:44;11.50;99.90
14739;DHT22;7461;52.440;13.540;2022-11-15T14:55:16;11.40;99.90
14739;DHT22;7461;52.440;13.540;2022-11-15T14:57:45;11.30;99.90
14739;DHT22;7461;52.440;13.540;2022-11-15T15:00:13;11.20;99.90
14739;DHT22;7461;52.440;13.540;2022-11-15T15:02:41;11.10;99.90
14739;DHT22;7461;52.440;13.540;2022-11-15T15:05:17;11.10;99.90
14739;DHT22;7461;52.440;13.540;2022-11-15T15:07:45;11.00;99.90
14739;DHT22;7461;52.440;13.540;2022-11-15T15:10:14;10.90;99.90
14739;DHT22;7461;52.440;13.540;2022-11-15T15:12:41;10.90;99.90
14739;DHT22;7461;52.440;13.540;2022-11-15T15:15:14;10.80;99.90
14739;DHT22;7461;52.440;13.540;2022-11-15T15:17:46;10.80;99.90
14739;DHT22;7461;52.440;13.540;2022-11-15T15:20:15;10.70;99.90
14739;DHT22;7461;52.440;13.540;2022-11-15T15:22:45;10.70;99.90
14739;DHT22;7461;52.440;13.540;2022-11-15T15:25:23;10.60;99.90
14739;DHT22;7461;52.440;13.540;2022-11-15T15:27:55;10.50;99.90
14739;DHT22;7461;52.440;13.540;2022-11-15T15:30:24;10.40;99.90
14739;DHT22;7461;52.440;13.540;2022-11-15T15:32:51;10.40;99.90
14739;DHT22;7461;52.440;13.540;2022-11-15T15:35:21;10.30;99.90
14739;DHT22;7461;52.440;13.540;2022-11-15T15:37:49;10.20;99.90
14739;DHT22;7461;52.440;13.540;2022-11-15T15:40:18;10.10;99.90
14739;DHT22;7461;52.440;13.540;2022-11-15T15:42:45;10.10;99.90
14739;DHT22;7461;52.440;13.540;2022-11-15T15:45:13;10.00;99.90
14739;DHT22;7461;52.440;13.540;2022-11-15T15:47:40;9.90;99.90
14739;DHT22;7461;52.440;13.540;2022-11-15T15:50:22;10.00;99.90
14739;DHT22;7461;52.440;13.540;2022-11-15T15:52:50;9.90;99.90
14739;DHT22;7461;52.440;13.540;2022-11-15T15:55:38;9.80;99.90
14739;DHT22;7461;52.440;13.540;2022-11-15T15:58:05;9.80;99.90
14739;DHT22;7461;52.440;13.540;2022-11-15T16:00:42;9.70;99.90
14739;DHT22;7461;52.440;13.540;2022-11-15T16:03:09;9.70;99.90
14739;DHT22;7461;52.440;13.540;2022-11-15T16:05:37;9.70;99.90
14739;DHT22;7461;52.440;13.540;2022-11-15T16:08:04;9.60;99.90
14739;DHT22;7461;52.440;13.540;2022-11-15T16:10:33;9.60;99.90
14739;DHT22;7461;52.440;13.540;2022-11-15T16:13:01;9.50;99.90
14739;DHT22;7461;52.440;13.540;2022-11-15T16:15:30;9.50;99.90
14739;DHT22;7461;52.440;13.540;2022-11-15T16:17:59;9.40;99.90
14739;DHT22;7461;52.440;13.540;2022-11-15T16:20:32;9.40;99.90
14739;DHT22;7461;52.440;13.540;2022-11-15T16:23:02;9.30;99.90
14739;DHT22;7461;52.440;13.540;2022-11-15T16:25:36;9.30;99.90
14739;DHT22;7461;52.440;13.540;2022-11-15T16:28:04;9.20;99.90
14739;DHT22;7461;52.440;13.540;2022-11-15T16:30:31;9.20;99.90
14739;DHT22;7461;52.440;13.540;2022-11-15T16:32:59;9.20;99.90
14739;DHT22;7461;52.440;13.540;2022-11-15T16:35:25;9.10;99.90
14739;DHT22;7461;52.440;13.540;2022-11-15T16:37:54;9.20;99.90
14739;DHT22;7461;52.440;13.540;2022-11-15T16:40:29;9.20;99.90
14739;DHT22;7461;52.440;13.540;2022-11-15T16:42:57;9.20;99.90
14739;DHT22;7461;52.440;13.540;2022-11-15T16:45:24;9.20;99.90
14739;DHT22;7461;52.440;13.540;2022-11-15T16:47:53;9.20;99.90